sensor_id;sensor_type;location;lat;lon;timestamp;temperature;humidity
20740;DHT22;10530;49.968;19.844;2023-07-29T00:03:23;16.60;99.90
20740;DHT22;10530;49.968;19.844;2023-07-29T00:08:26;16.60;99.90
20740;DHT22;10530;49.968;19.844;2023-07-29T00:13:29;16.70;99.90
20740;DHT22;10530;49.968;19.844;2023-07-29T00:18:32;16.70;99.90
20740;DHT22;10530;49.968;19.844;2023-07-29T00:23:35;16.80;99.90
20740;DHT22;10530;49.968;19.844;2023-07-29T00:28:37;16.70;99.90
20740;DHT22;10530;49.968;19.844;2023-07-29T00:33:40;16.70;99.90
20740;DHT22;10530;49.968;19.844;2023-07-29T00:38:43;16.70;99.90
20740;DHT22;10530;49.968;19.844;2023-07-29T00:43:45;16.60;99.90
20740;DHT22;10530;49.968;19.844;2023-07-29T00:48:48;16.50;99.90
20740;DHT22;10530;49.968;19.844;2023-07-29T00:53:51;16.50;99.90
20740;DHT22;10530;49.968;19.844;2023-07-29T00:58:54;16.40;99.90
20740;DHT22;10530;49.968;19.844;2023-07-29T01:04:02;16.40;99.90
20740;DHT22;10530;49.968;19.844;2023-07-29T01:14:49;16.40;99.90
20740;DHT22;10530;49.968;19.844;2023-07-29T01:20:19;16.40;99.90
20740;DHT22;10530;49.968;19.844;2023-07-29T01:25:22;16.30;99.90
20740;DHT22;10530;49.968;19.844;2023-07-29T01:30:39;16.30;99.90
20740;DHT22;10530;49.968;19.844;2023-07-29T01:35:48;16.10;99.90
20740;DHT22;10530;49.968;19.844;2023-07-29T01:40:53;16.10;99.90
20740;DHT22;10530;49.968;19.844;2023-07-29T01:45:56;16.00;99.90
20740;DHT22;10530;49.968;19.844;2023-07-29T01:50:59;15.90;99.90
20740;DHT22;10530;49.968;19.844;2023-07-29T01:56:02;15.90;99.90
20740;DHT22;10530;49.968;19.844;2023-07-29T02:01:05;15.90;99.90
20740;DHT22;10530;49.968;19.844;2023-07-29T02:06:08;16.00;99.90
20740;DHT22;10530;49.968;19.844;2023-07-29T02:11:10;16.10;99.90
20740;DHT22;10530;49.968;19.844;2023-07-29T02:16:13;16.30;99.90
20740;DHT22;10530;49.968;19.844;2023-07-29T02:21:16;16.40;99.90
20740;DHT22;10530;49.968;19.844;2023-07-29T02:26:19;16.50;99.90
20740;DHT22;10530;49.968;19.844;2023-07-29T02:31:23;16.60;99.90
20740;DHT22;10530;49.968;19.844;2023-07-29T02:36:27;16.50;99.90
20740;DHT22;10530;49.968;19.844;2023-07-29T02:41:29;16.70;99.90
20740;DHT22;10530;49.968;19.844;2023-07-29T02:46:32;16.70;99.90
20740;DHT22;10530;49.968;19.844;2023-07-29T02:51:35;16.70;99.90
20740;DHT22;10530;49.968;19.844;2023-07-29T02:56:38;16.80;99.90
20740;DHT22;10530;49.968;19.844;2023-07-29T03:01:41;16.90;99.90
20740;DHT22;10530;49.968;19.844;2023-07-29T03:06:44;17.00;99.90
20740;DHT22;10530;49.968;19.844;2023-07-29T03:11:47;17.10;99.90
20740;DHT22;10530;49.968;19.844;2023-07-29T03:16:49;17.20;99.90
20740;DHT22;10530;49.968;19.844;2023-07-29T03:21:52;17.20;99.90
20740;DHT22;10530;49.968;19.844;2023-07-29T03:26:55;17.20;99.90
20740;DHT22;10530;49.968;19.844;2023-07-29T03:31:57;17.30;99.90
20740;DHT22;10530;49.968;19.844;2023-07-29T03:37:01;17.40;99.90
20740;DHT22;10530;49.968;19.844;2023-07-29T03:42:04;17.40;99.90
20740;DHT22;10530;49.968;19.844;2023-07-29T03:47:07;17.40;99.90
20740;DHT22;10530;49.968;19.844;2023-07-29T03:52:11;17.40;99.90
20740;DHT22;10530;49.968;19.844;2023-07-29T03:57:14;17.40;99.90
20740;DHT22;10530;49.968;19.844;2023-07-29T04:02:16;17.40;99.90
20740;DHT22;10530;49.968;19.844;2023-07-29T04:07:19;17.40;99.90
20740;DHT22;10530;49.968;19.844;2023-07-29T04:12:23;17.60;99.90
20740;DHT22;10530;49.968;19.844;2023-07-29T04:17:25;17.60;99.90
20740;DHT22;10530;49.968;19.844;2023-07-29T04:22:28;17.70;99.90
20740;DHT22;10530;49.968;19.844;2023-07-29T04:27:31;17.80;99.90
20740;DHT22;10530;49.968;19.844;2023-07-29T04:32:33;17.90;99.90
20740;DHT22;10530;49.968;19.844;2023-07-29T04:37:36;17.90;99.90
20740;DHT22;10530;49.968;19.844;2023-07-29T04:42:39;18.10;99.90
20740;DHT22;10530;49.968;19.844;2023-07-29T04:47:43;18.30;99.90
20740;DHT22;10530;49.968;19.844;2023-07-29T04:52:46;18.40;99.90
20740;DHT22;10530;49.968;19.844;2023-07-29T04:57:49;18.60;99.90
20740;DHT22;10530;49.968;19.844;2023-07-29T05:02:52;18.70;99.90
20740;DHT22;10530;49.968;19.844;2023-07-29T05:07:55;18.90;99.90
20740;DHT22;10530;49.968;19.844;2023-07-29T05:12:58;19.30;99.90
20740;DHT22;10530;49.968;19.844;2023-07-29T05:18:00;19.80;99.90
20740;DHT22;10530;49.968;19.844;2023-07-29T05:23:03;20.20;99.90
20740;DHT22;10530;49.968;19.844;2023-07-29T05:28:06;20.50;99.90
20740;DHT22;10530;49.968;19.844;2023-07-29T05:33:08;20.90;99.90
20740;DHT22;10530;49.968;19.844;2023-07-29T05:38:13;21.20;99.90
20740;DHT22;10530;49.968;19.844;2023-07-29T05:43:15;21.50;99.90
20740;DHT22;10530;49.968;19.844;2023-07-29T05:48:22;21.60;99.90
20740;DHT22;10530;49.968;19.844;2023-07-29T05:53:25;21.70;99.90
20740;DHT22;10530;49.968;19.844;2023-07-29T05:58:28;21.90;99.90
20740;DHT22;10530;49.968;19.844;2023-07-29T06:03:33;22.10;99.90
20740;DHT22;10530;49.968;19.844;2023-07-29T06:08:36;22.60;99.90
20740;DHT22;10530;49.968;19.844;2023-07-29T06:13:39;23.00;99.90
20740;DHT22;10530;49.968;19.844;2023-07-29T06:18:41;23.60;99.90
20740;DHT22;10530;49.968;19.844;2023-07-29T06:23:44;23.70;99.90
20740;DHT22;10530;49.968;19.844;2023-07-29T06:28:47;24.00;99.90
20740;DHT22;10530;49.968;19.844;2023-07-29T06:33:50;24.30;99.90
20740;DHT22;10530;49.968;19.844;2023-07-29T06:38:52;24.50;99.90
20740;DHT22;10530;49.968;19.844;2023-07-29T06:43:55;24.70;99.90
20740;DHT22;10530;49.968;19.844;2023-07-29T06:48:58;24.90;99.90
20740;DHT22;10530;49.968;19.844;2023-07-29T06:54:02;25.10;99.90
20740;DHT22;10530;49.968;19.844;2023-07-29T06:59:06;25.30;99.90
20740;DHT22;10530;49.968;19.844;2023-07-29T07:04:08;25.50;99.90
20740;DHT22;10530;49.968;19.844;2023-07-29T07:09:11;25.80;99.90
20740;DHT22;10530;49.968;19.844;2023-07-29T07:14:14;25.60;99.90
20740;DHT22;10530;49.968;19.844;2023-07-29T07:19:17;25.90;99.90
20740;DHT22;10530;49.968;19.844;2023-07-29T07:24:20;26.10;99.90
20740;DHT22;10530;49.968;19.844;2023-07-29T07:29:23;25.90;99.90
20740;DHT22;10530;49.968;19.844;2023-07-29T07:34:26;25.90;99.90
20740;DHT22;10530;49.968;19.844;2023-07-29T07:39:29;26.20;99.90
20740;DHT22;10530;49.968;19.844;2023-07-29T07:44:32;26.30;99.90
20740;DHT22;10530;49.968;19.844;2023-07-29T07:49:35;26.30;99.90
20740;DHT22;10530;49.968;19.844;2023-07-29T07:54:38;26.30;99.90
20740;DHT22;10530;49.968;19.844;2023-07-29T07:59:41;26.50;99.90
20740;DHT22;10530;49.968;19.844;2023-07-29T08:04:43;26.00;99.90
20740;DHT22;10530;49.968;19.844;2023-07-29T08:09:46;26.10;99.90
20740;DHT22;10530;49.968;19.844;2023-07-29T08:14:49;26.70;99.90
20740;DHT22;10530;49.968;19.844;2023-07-29T08:19:52;27.10;99.90
20740;DHT22;10530;49.968;19.844;2023-07-29T08:24:54;27.10;99.90
20740;DHT22;10530;49.968;19.844;2023-07-29T08:29:57;27.10;99.90
20740;DHT22;10530;49.968;19.844;2023-07-29T08:35:00;28.10;99.90
20740;DHT22;10530;49.968;19.844;2023-07-29T08:40:03;28.60;98.30
20740;DHT22;10530;49.968;19.844;2023-07-29T08:45:07;29.40;91.40
20740;DHT22;10530;49.968;19.844;2023-07-29T08:50:11;29.70;79.80
20740;DHT22;10530;49.968;19.844;2023-07-29T08:55:16;29.00;91.50
20740;DHT22;10530;49.968;19.844;2023-07-29T09:00:19;28.60;76.70
20740;DHT22;10530;49.968;19.844;2023-07-29T09:05:23;28.50;92.20
20740;DHT22;10530;49.968;19.844;2023-07-29T09:10:26;28.50;85.80
20740;DHT22;10530;49.968;19.844;2023-07-29T09:15:30;28.40;88.60
20740;DHT22;10530;49.968;19.844;2023-07-29T09:20:33;28.10;82.90
20740;DHT22;10530;49.968;19.844;2023-07-29T09:25:37;28.10;75.50
20740;DHT22;10530;49.968;19.844;2023-07-29T09:30:42;28.10;74.80
20740;DHT22;10530;49.968;19.844;2023-07-29T09:35:45;28.80;86.40
20740;DHT22;10530;49.968;19.844;2023-07-29T09:40:49;31.10;59.60
20740;DHT22;10530;49.968;19.844;2023-07-29T09:45:52;31.90;44.30
20740;DHT22;10530;49.968;19.844;2023-07-29T09:50:55;31.00;47.20
20740;DHT22;10530;49.968;19.844;2023-07-29T09:55:58;29.50;51.00
20740;DHT22;10530;49.968;19.844;2023-07-29T10:01:01;28.30;63.20
20740;DHT22;10530;49.968;19.844;2023-07-29T10:06:04;28.00;84.00
20740;DHT22;10530;49.968;19.844;2023-07-29T10:11:10;27.60;92.50
20740;DHT22;10530;49.968;19.844;2023-07-29T10:16:13;27.20;99.90
20740;DHT22;10530;49.968;19.844;2023-07-29T10:21:16;27.20;99.90
20740;DHT22;10530;49.968;19.844;2023-07-29T10:26:20;27.40;99.90
20740;DHT22;10530;49.968;19.844;2023-07-29T10:31:25;27.10;99.90
20740;DHT22;10530;49.968;19.844;2023-07-29T10:36:28;27.00;99.90
20740;DHT22;10530;49.968;19.844;2023-07-29T10:41:59;27.40;99.90
20740;DHT22;10530;49.968;19.844;2023-07-29T10:47:14;27.50;99.90
20740;DHT22;10530;49.968;19.844;2023-07-29T10:52:32;26.90;99.90
20740;DHT22;10530;49.968;19.844;2023-07-29T10:57:45;27.20;99.90
20740;DHT22;10530;49.968;19.844;2023-07-29T11:02:59;27.10;99.90
20740;DHT22;10530;49.968;19.844;2023-07-29T11:08:23;26.00;99.90
20740;DHT22;10530;49.968;19.844;2023-07-29T11:13:28;25.40;99.90
20740;DHT22;10530;49.968;19.844;2023-07-29T11:18:32;25.40;99.90
20740;DHT22;10530;49.968;19.844;2023-07-29T11:23:39;25.50;99.90
20740;DHT22;10530;49.968;19.844;2023-07-29T11:28:41;26.00;99.90
20740;DHT22;10530;49.968;19.844;2023-07-29T11:33:44;27.10;99.90
20740;DHT22;10530;49.968;19.844;2023-07-29T11:38:47;27.10;99.90
20740;DHT22;10530;49.968;19.844;2023-07-29T11:43:50;29.60;99.90
20740;DHT22;10530;49.968;19.844;2023-07-29T11:48:55;27.50;99.90
20740;DHT22;10530;49.968;19.844;2023-07-29T11:53:57;28.00;99.90
20740;DHT22;10530;49.968;19.844;2023-07-29T11:59:01;29.80;68.60
20740;DHT22;10530;49.968;19.844;2023-07-29T12:04:05;29.60;66.30
20740;DHT22;10530;49.968;19.844;2023-07-29T12:09:08;28.60;72.10
20740;DHT22;10530;49.968;19.844;2023-07-29T12:14:11;27.80;78.40
20740;DHT22;10530;49.968;19.844;2023-07-29T12:19:15;27.60;91.90
20740;DHT22;10530;49.968;19.844;2023-07-29T12:24:18;28.90;78.40
20740;DHT22;10530;49.968;19.844;2023-07-29T12:29:20;29.90;57.70
20740;DHT22;10530;49.968;19.844;2023-07-29T12:34:26;31.40;53.70
20740;DHT22;10530;49.968;19.844;2023-07-29T12:39:31;31.90;39.50
20740;DHT22;10530;49.968;19.844;2023-07-29T12:44:37;31.00;44.40
20740;DHT22;10530;49.968;19.844;2023-07-29T12:49:39;31.20;50.80
20740;DHT22;10530;49.968;19.844;2023-07-29T12:54:42;31.50;38.40
20740;DHT22;10530;49.968;19.844;2023-07-29T12:59:46;30.40;40.60
20740;DHT22;10530;49.968;19.844;2023-07-29T13:04:49;30.10;36.70
20740;DHT22;10530;49.968;19.844;2023-07-29T13:09:51;31.90;39.80
20740;DHT22;10530;49.968;19.844;2023-07-29T13:14:54;32.00;31.80
20740;DHT22;10530;49.968;19.844;2023-07-29T13:19:57;31.40;35.40
20740;DHT22;10530;49.968;19.844;2023-07-29T13:25:00;31.90;43.40
20740;DHT22;10530;49.968;19.844;2023-07-29T13:30:04;31.50;36.90
20740;DHT22;10530;49.968;19.844;2023-07-29T13:35:07;30.80;40.70
20740;DHT22;10530;49.968;19.844;2023-07-29T13:40:10;29.70;41.20
20740;DHT22;10530;49.968;19.844;2023-07-29T13:45:13;29.50;57.20
20740;DHT22;10530;49.968;19.844;2023-07-29T13:50:19;28.70;53.50
20740;DHT22;10530;49.968;19.844;2023-07-29T13:55:22;27.90;99.90
20740;DHT22;10530;49.968;19.844;2023-07-29T14:00:24;27.00;99.90
20740;DHT22;10530;49.968;19.844;2023-07-29T14:05:27;23.70;99.90
20740;DHT22;10530;49.968;19.844;2023-07-29T14:10:30;23.30;99.90
20740;DHT22;10530;49.968;19.844;2023-07-29T14:15:32;23.50;99.90
20740;DHT22;10530;49.968;19.844;2023-07-29T14:20:35;23.90;99.90
20740;DHT22;10530;49.968;19.844;2023-07-29T14:25:38;24.30;99.90
20740;DHT22;10530;49.968;19.844;2023-07-29T14:30:41;24.40;99.90
20740;DHT22;10530;49.968;19.844;2023-07-29T14:35:44;24.70;99.90
20740;DHT22;10530;49.968;19.844;2023-07-29T14:40:48;25.00;99.90
20740;DHT22;10530;49.968;19.844;2023-07-29T14:45:53;25.40;99.90
20740;DHT22;10530;49.968;19.844;2023-07-29T14:50:56;25.40;99.90
20740;DHT22;10530;49.968;19.844;2023-07-29T14:55:58;26.80;99.90
20740;DHT22;10530;49.968;19.844;2023-07-29T15:01:01;25.60;99.90
20740;DHT22;10530;49.968;19.844;2023-07-29T15:06:04;25.20;99.90
20740;DHT22;10530;49.968;19.844;2023-07-29T15:11:07;26.20;99.90
20740;DHT22;10530;49.968;19.844;2023-07-29T15:16:10;25.50;99.90
20740;DHT22;10530;49.968;19.844;2023-07-29T15:21:12;25.20;99.90
20740;DHT22;10530;49.968;19.844;2023-07-29T15:26:15;25.00;99.90
20740;DHT22;10530;49.968;19.844;2023-07-29T15:31:18;24.90;99.90
20740;DHT22;10530;49.968;19.844;2023-07-29T15:36:21;24.80;99.90
20740;DHT22;10530;49.968;19.844;2023-07-29T15:41:24;24.80;99.90
20740;DHT22;10530;49.968;19.844;2023-07-29T15:46:26;24.70;99.90
20740;DHT22;10530;49.968;19.844;2023-07-29T15:51:29;24.80;99.90
20740;DHT22;10530;49.968;19.844;2023-07-29T15:56:32;24.50;99.90
20740;DHT22;10530;49.968;19.844;2023-07-29T16:01:39;24.50;99.90
20740;DHT22;10530;49.968;19.844;2023-07-29T16:06:41;24.80;99.90
20740;DHT22;10530;49.968;19.844;2023-07-29T16:11:44;24.70;99.90
20740;DHT22;10530;49.968;19.844;2023-07-29T16:16:47;24.80;99.90
20740;DHT22;10530;49.968;19.844;2023-07-29T16:21:51;24.60;99.90
20740;DHT22;10530;49.968;19.844;2023-07-29T16:26:53;24.50;99.90
20740;DHT22;10530;49.968;19.844;2023-07-29T16:31:56;24.50;99.90
20740;DHT22;10530;49.968;19.844;2023-07-29T16:36:59;24.00;99.90
20740;DHT22;10530;49.968;19.844;2023-07-29T16:42:03;23.70;99.90
20740;DHT22;10530;49.968;19.844;2023-07-29T16:47:07;23.40;99.90
20740;DHT22;10530;49.968;19.844;2023-07-29T16:52:10;23.20;99.90
20740;DHT22;10530;49.968;19.844;2023-07-29T16:57:12;23.00;99.90
20740;DHT22;10530;49.968;19.844;2023-07-29T17:02:15;22.90;99.90
20740;DHT22;10530;49.968;19.844;2023-07-29T17:07:18;22.90;99.90
20740;DHT22;10530;49.968;19.844;2023-07-29T17:12:20;22.80;99.90
20740;DHT22;10530;49.968;19.844;2023-07-29T17:17:23;22.60;99.90
20740;DHT22;10530;49.968;19.844;2023-07-29T17:22:26;22.30;99.90
20740;DHT22;10530;49.968;19.844;2023-07-29T17:27:28;22.10;99.90
20740;DHT22;10530;49.968;19.844;2023-07-29T17:32:31;22.00;99.90
20740;DHT22;10530;49.968;19.844;2023-07-29T17:37:34;21.80;99.90
20740;DHT22;10530;49.968;19.844;2023-07-29T17:42:37;21.80;99.90
20740;DHT22;10530;49.968;19.844;2023-07-29T17:47:40;21.70;99.90
20740;DHT22;10530;49.968;19.844;2023-07-29T17:52:42;21.70;99.90
20740;DHT22;10530;49.968;19.844;2023-07-29T17:57:45;21.60;99.90
20740;DHT22;10530;49.968;19.844;2023-07-29T18:02:48;21.70;99.90
20740;DHT22;10530;49.968;19.844;2023-07-29T18:07:51;21.70;99.90
20740;DHT22;10530;49.968;19.844;2023-07-29T18:12:54;21.70;99.90
20740;DHT22;10530;49.968;19.844;2023-07-29T18:17:56;21.70;99.90
20740;DHT22;10530;49.968;19.844;2023-07-29T18:22:59;21.60;99.90
20740;DHT22;10530;49.968;19.844;2023-07-29T18:28:06;21.50;99.90
20740;DHT22;10530;49.968;19.844;2023-07-29T18:33:10;21.30;99.90
20740;DHT22;10530;49.968;19.844;2023-07-29T18:38:13;21.30;99.90
20740;DHT22;10530;49.968;19.844;2023-07-29T18:43:16;21.30;99.90
20740;DHT22;10530;49.968;19.844;2023-07-29T18:48:19;21.20;99.90
20740;DHT22;10530;49.968;19.844;2023-07-29T18:53:21;21.20;99.90
20740;DHT22;10530;49.968;19.844;2023-07-29T18:58:24;21.30;99.90
20740;DHT22;10530;49.968;19.844;2023-07-29T19:03:27;21.30;99.90
20740;DHT22;10530;49.968;19.844;2023-07-29T19:08:30;21.20;99.90
20740;DHT22;10530;49.968;19.844;2023-07-29T19:13:33;21.00;99.90
20740;DHT22;10530;49.968;19.844;2023-07-29T19:18:35;20.90;99.90
20740;DHT22;10530;49.968;19.844;2023-07-29T19:23:38;20.80;99.90
20740;DHT22;10530;49.968;19.844;2023-07-29T19:28:41;20.70;99.90
20740;DHT22;10530;49.968;19.844;2023-07-29T19:33:44;20.70;99.90
20740;DHT22;10530;49.968;19.844;2023-07-29T19:38:47;20.50;99.90
20740;DHT22;10530;49.968;19.844;2023-07-29T19:43:50;20.30;99.90
20740;DHT22;10530;49.968;19.844;2023-07-29T19:48:59;20.20;99.90
20740;DHT22;10530;49.968;19.844;2023-07-29T19:54:02;20.00;99.90
20740;DHT22;10530;49.968;19.844;2023-07-29T19:59:05;19.90;99.90
20740;DHT22;10530;49.968;19.844;2023-07-29T20:04:08;19.60;99.90
20740;DHT22;10530;49.968;19.844;2023-07-29T20:09:10;19.50;99.90
20740;DHT22;10530;49.968;19.844;2023-07-29T20:14:13;19.30;99.90
20740;DHT22;10530;49.968;19.844;2023-07-29T20:19:16;19.20;99.90
20740;DHT22;10530;49.968;19.844;2023-07-29T20:24:19;19.20;99.90
20740;DHT22;10530;49.968;19.844;2023-07-29T20:29:22;19.00;99.90
20740;DHT22;10530;49.968;19.844;2023-07-29T20:34:24;19.00;99.90
20740;DHT22;10530;49.968;19.844;2023-07-29T20:39:27;18.80;99.90
20740;DHT22;10530;49.968;19.844;2023-07-29T20:44:30;18.70;99.90
20740;DHT22;10530;49.968;19.844;2023-07-29T20:49:33;18.70;99.90
20740;DHT22;10530;49.968;19.844;2023-07-29T20:54:36;18.40;99.90
20740;DHT22;10530;49.968;19.844;2023-07-29T20:59:38;18.30;99.90
20740;DHT22;10530;49.968;19.844;2023-07-29T21:04:41;18.20;99.90
20740;DHT22;10530;49.968;19.844;2023-07-29T21:09:44;18.10;99.90
20740;DHT22;10530;49.968;19.844;2023-07-29T21:14:47;18.00;99.90
20740;DHT22;10530;49.968;19.844;2023-07-29T21:19:49;17.90;99.90
20740;DHT22;10530;49.968;19.844;2023-07-29T21:24:52;18.00;99.90
20740;DHT22;10530;49.968;19.844;2023-07-29T21:29:55;18.00;99.90
20740;DHT22;10530;49.968;19.844;2023-07-29T21:34:58;18.20;99.90
20740;DHT22;10530;49.968;19.844;2023-07-29T21:40:01;18.20;99.90
20740;DHT22;10530;49.968;19.844;2023-07-29T21:45:05;18.10;99.90
20740;DHT22;10530;49.968;19.844;2023-07-29T21:50:08;17.90;99.90
20740;DHT22;10530;49.968;19.844;2023-07-29T21:55:11;17.80;99.90
20740;DHT22;10530;49.968;19.844;2023-07-29T22:00:14;17.90;99.90
20740;DHT22;10530;49.968;19.844;2023-07-29T22:05:21;17.90;99.90
20740;DHT22;10530;49.968;19.844;2023-07-29T22:10:24;17.70;99.90
20740;DHT22;10530;49.968;19.844;2023-07-29T22:15:27;17.50;99.90
20740;DHT22;10530;49.968;19.844;2023-07-29T22:20:29;17.50;99.90
20740;DHT22;10530;49.968;19.844;2023-07-29T22:25:32;17.50;99.90
20740;DHT22;10530;49.968;19.844;2023-07-29T22:30:35;17.50;99.90
20740;DHT22;10530;49.968;19.844;2023-07-29T22:35:39;17.60;99.90
20740;DHT22;10530;49.968;19.844;2023-07-29T22:40:49;17.60;99.90
20740;DHT22;10530;49.968;19.844;2023-07-29T22:45:56;17.50;99.90
20740;DHT22;10530;49.968;19.844;2023-07-29T22:50:59;17.60;99.90
20740;DHT22;10530;49.968;19.844;2023-07-29T22:56:02;17.50;99.90
20740;DHT22;10530;49.968;19.844;2023-07-29T23:01:05;17.50;99.90
20740;DHT22;10530;49.968;19.844;2023-07-29T23:06:08;17.40;99.90
20740;DHT22;10530;49.968;19.844;2023-07-29T23:11:11;17.40;99.90
20740;DHT22;10530;49.968;19.844;2023-07-29T23:16:13;17.60;99.90
20740;DHT22;10530;49.968;19.844;2023-07-29T23:21:16;17.60;99.90
20740;DHT22;10530;49.968;19.844;2023-07-29T23:26:19;17.90;99.90
20740;DHT22;10530;49.968;19.844;2023-07-29T23:31:21;17.80;99.90
20740;DHT22;10530;49.968;19.844;2023-07-29T23:36:24;17.80;99.90
20740;DHT22;10530;49.968;19.844;2023-07-29T23:41:27;17.70;99.90
20740;DHT22;10530;49.968;19.844;2023-07-29T23:46:30;17.60;99.90
20740;DHT22;10530;49.968;19.844;2023-07-29T23:51:32;17.50;99.90
20740;DHT22;10530;49.968;19.844;2023-07-29T23:56:35;17.40;99.90
